Time;durP1;ratioP1;P1;durP2;ratioP2;P2;SDS_P1;SDS_P2;PMS_P1;PMS_P2;Temp;Humidity;BMP_temperature;BMP_pressure;BME280_temperature;BME280_humidity;BME280_pressure;Samples;Min_cycle;Max_cycle;Signal;HPM_P1;HPM_P2
2022/07/04 00:00:53;;;;;;;6.88;3.35;;;22.60;99.90;;;;;;4925052;29;20034;-78
2022/07/04 00:03:19;;;;;;;6.13;3.30;;;22.60;99.90;;;;;;4921969;29;20040;-79
2022/07/04 00:05:45;;;;;;;4.38;3.10;;;22.50;99.90;;;;;;4926009;29;20059;-80
2022/07/04 00:08:11;;;;;;;6.95;3.17;;;22.40;99.90;;;;;;4925025;29;20032;-78
2022/07/04 00:10:37;;;;;;;6.75;3.15;;;22.40;99.90;;;;;;4927996;29;20028;-78
2022/07/04 00:13:02;;;;;;;7.82;3.28;;;22.30;99.90;;;;;;4931650;29;20053;-78
2022/07/04 00:15:28;;;;;;;9.85;3.50;;;22.30;99.90;;;;;;4930212;29;20032;-78
2022/07/04 00:17:54;;;;;;;4.40;3.20;;;22.30;99.90;;;;;;4931185;29;20024;-79
2022/07/04 00:20:20;;;;;;;6.18;3.50;;;22.30;99.90;;;;;;4929873;29;20144;-80
2022/07/04 00:22:46;;;;;;;6.68;3.70;;;22.10;99.90;;;;;;4929094;29;20053;-79
2022/07/04 00:25:11;;;;;;;5.45;3.20;;;22.10;99.90;;;;;;4930049;29;20444;-79
2022/07/04 00:27:37;;;;;;;3.92;2.92;;;22.10;99.90;;;;;;4948194;23;20086;-80
2022/07/04 00:30:04;;;;;;;4.65;3.00;;;22.10;99.90;;;;;;4953237;29;20032;-84
2022/07/04 00:32:30;;;;;;;3.83;2.92;;;22.30;99.90;;;;;;4957595;29;20028;-82
2022/07/04 00:34:56;;;;;;;9.15;2.58;;;22.60;99.90;;;;;;4962578;28;20031;-81
2022/07/04 00:37:22;;;;;;;4.32;2.70;;;22.70;99.90;;;;;;4962913;28;20054;-81
2022/07/04 00:39:48;;;;;;;6.47;2.38;;;22.80;99.90;;;;;;4962453;28;20036;-80
2022/07/04 00:42:14;;;;;;;4.65;2.60;;;22.80;99.90;;;;;;4962772;28;20020;-82
2022/07/04 00:44:40;;;;;;;3.22;2.60;;;22.80;99.90;;;;;;4960081;29;20027;-81
2022/07/04 00:47:07;;;;;;;5.63;2.30;;;22.80;99.90;;;;;;4958777;29;20028;-81
2022/07/04 00:49:34;;;;;;;4.95;2.85;;;22.70;99.90;;;;;;4959326;29;20051;-81
2022/07/04 00:52:00;;;;;;;2.40;2.20;;;22.70;99.90;;;;;;4960223;29;20075;-83
2022/07/04 00:54:31;;;;;;;6.03;2.78;;;22.60;99.90;;;;;;4959620;29;20039;-82
2022/07/04 00:56:57;;;;;;;4.97;2.35;;;22.50;99.90;;;;;;4956328;29;20038;-83
2022/07/04 00:59:23;;;;;;;4.60;2.60;;;22.30;99.90;;;;;;4957179;29;20016;-80
2022/07/04 01:01:50;;;;;;;7.72;2.75;;;22.10;99.90;;;;;;4960027;29;20024;-84
2022/07/04 01:04:16;;;;;;;3.40;2.40;;;22.00;99.90;;;;;;4958940;29;20047;-86
2022/07/04 01:06:43;;;;;;;5.88;2.92;;;21.80;99.90;;;;;;4951151;29;20042;-85
2022/07/04 01:09:09;;;;;;;8.10;2.63;;;21.80;99.90;;;;;;4951072;29;20047;-87
2022/07/04 01:11:35;;;;;;;3.13;2.50;;;21.70;99.90;;;;;;4934592;29;20046;-85
2022/07/04 01:14:02;;;;;;;3.53;2.55;;;21.80;99.90;;;;;;4951425;29;20059;-85
2022/07/04 01:16:28;;;;;;;5.03;2.83;;;21.70;99.90;;;;;;4950370;29;20028;-83
2022/07/04 01:18:55;;;;;;;5.35;2.80;;;21.70;99.90;;;;;;4949551;29;20032;-86
2022/07/04 01:21:21;;;;;;;6.75;3.00;;;21.60;99.90;;;;;;4950155;29;20047;-84
2022/07/04 01:23:47;;;;;;;3.17;2.88;;;21.40;99.90;;;;;;4955309;29;20292;-83
2022/07/04 01:26:13;;;;;;;6.38;3.30;;;21.30;99.90;;;;;;4958884;29;20070;-84
2022/07/04 01:28:39;;;;;;;4.32;3.67;;;21.20;99.90;;;;;;4957083;29;20035;-84
2022/07/04 01:31:05;;;;;;;5.13;3.88;;;21.20;99.90;;;;;;4953568;29;20035;-84
2022/07/04 01:33:31;;;;;;;4.18;3.67;;;21.10;99.90;;;;;;4954905;29;20078;-84
2022/07/04 01:35:57;;;;;;;5.40;3.53;;;21.00;99.90;;;;;;4954749;29;20114;-84
2022/07/04 01:38:23;;;;;;;4.70;3.22;;;21.00;99.90;;;;;;4951864;29;20051;-84
2022/07/04 01:40:49;;;;;;;4.28;3.58;;;21.00;99.90;;;;;;4952703;29;20032;-85
2022/07/04 01:43:15;;;;;;;4.88;3.78;;;21.00;99.90;;;;;;4936808;29;20043;-84
2022/07/04 01:45:41;;;;;;;4.30;3.53;;;20.90;99.90;;;;;;4958943;29;20062;-84
2022/07/04 01:48:07;;;;;;;4.57;3.70;;;20.90;99.90;;;;;;4958866;29;20019;-80
2022/07/04 01:50:34;;;;;;;7.32;4.20;;;20.90;99.90;;;;;;4959922;29;20039;-83
2022/07/04 01:53:00;;;;;;;5.00;4.03;;;20.90;99.90;;;;;;4955087;29;20269;-84
2022/07/04 01:55:26;;;;;;;5.95;3.83;;;20.90;99.90;;;;;;4953032;29;20035;-84
2022/07/04 01:57:52;;;;;;;5.10;3.90;;;20.90;99.90;;;;;;4957222;28;20052;-80
2022/07/04 02:03:02;;;;;;;7.70;4.00;;;20.90;99.90;;;;;;4958653;29;20321;-85
2022/07/04 02:05:28;;;;;;;8.13;4.65;;;20.90;99.90;;;;;;4959126;29;20104;-84
2022/07/04 02:07:54;;;;;;;7.10;4.53;;;20.90;99.90;;;;;;4960175;28;20055;-81
2022/07/04 02:10:20;;;;;;;4.53;4.00;;;20.90;99.90;;;;;;4958758;28;20036;-84
2022/07/04 02:13:01;;;;;;;5.13;4.60;;;20.80;99.90;;;;;;4960095;29;20042;-82
2022/07/04 02:15:29;;;;;;;7.30;4.20;;;20.80;99.90;;;;;;4960527;28;20055;-81
2022/07/04 02:17:55;;;;;;;5.32;3.97;;;20.70;99.90;;;;;;4959407;28;20028;-83
2022/07/04 02:20:21;;;;;;;7.35;4.20;;;20.70;99.90;;;;;;4960005;28;20120;-83
2022/07/04 02:22:47;;;;;;;4.30;3.90;;;20.70;99.90;;;;;;4942484;29;20032;-81
2022/07/04 02:25:13;;;;;;;4.88;3.75;;;20.70;99.90;;;;;;4958421;29;20443;-82
2022/07/04 02:27:39;;;;;;;6.65;4.25;;;20.60;99.90;;;;;;4958628;28;20024;-83
2022/07/04 02:30:06;;;;;;;10.48;4.00;;;20.60;99.90;;;;;;4952609;29;20082;-85
2022/07/04 02:32:32;;;;;;;5.13;4.63;;;20.60;99.90;;;;;;4948776;29;20031;-82
2022/07/04 02:34:58;;;;;;;5.45;3.92;;;20.70;99.90;;;;;;4948361;29;20030;-83
2022/07/04 02:37:24;;;;;;;8.48;3.95;;;20.70;99.90;;;;;;4949320;29;20511;-84
2022/07/04 02:39:50;;;;;;;5.65;4.75;;;20.70;99.90;;;;;;4952791;29;20027;-85
2022/07/04 02:42:15;;;;;;;5.90;4.50;;;20.60;99.90;;;;;;4958636;29;20036;-82
2022/07/04 02:44:43;;;;;;;9.68;4.78;;;20.60;99.90;;;;;;4957801;29;20027;-82
2022/07/04 02:47:09;;;;;;;6.97;4.18;;;20.60;99.90;;;;;;4956682;29;20080;-83
2022/07/04 02:49:34;;;;;;;8.20;4.20;;;20.50;99.90;;;;;;4958480;28;20024;-82
2022/07/04 02:52:00;;;;;;;7.47;4.25;;;20.50;99.90;;;;;;4960700;28;20024;-81
2022/07/04 02:54:26;;;;;;;6.75;4.32;;;20.50;99.90;;;;;;4960681;28;20059;-80
2022/07/04 02:56:52;;;;;;;5.93;4.32;;;20.50;99.90;;;;;;4960250;28;20047;-80
2022/07/04 02:59:17;;;;;;;5.45;4.25;;;20.50;99.90;;;;;;4960399;28;20035;-82
2022/07/04 03:01:43;;;;;;;7.15;4.53;;;20.40;99.90;;;;;;4960793;28;20032;-81
2022/07/04 03:04:09;;;;;;;5.68;4.28;;;20.40;99.90;;;;;;4960684;28;20096;-82
2022/07/04 03:06:35;;;;;;;6.95;4.43;;;20.40;99.90;;;;;;4960087;29;20026;-84
2022/07/04 03:09:01;;;;;;;6.65;4.35;;;20.50;99.90;;;;;;4959755;28;20027;-80
2022/07/04 03:11:27;;;;;;;7.47;4.05;;;20.40;99.90;;;;;;4960567;28;20016;-83
2022/07/04 03:13:53;;;;;;;9.25;4.72;;;20.50;99.90;;;;;;4960542;28;20008;-80
2022/07/04 03:16:18;;;;;;;5.47;4.15;;;20.50;99.90;;;;;;4960509;28;20105;-81
2022/07/04 03:18:46;;;;;;;11.30;4.20;;;20.50;99.90;;;;;;4959442;28;20040;-80
2022/07/04 03:21:11;;;;;;;3.90;3.47;;;20.50;99.90;;;;;;4943953;28;20012;-81
2022/07/04 03:23:37;;;;;;;7.40;3.35;;;20.60;99.90;;;;;;4953309;29;20043;-84
2022/07/04 03:26:04;;;;;;;6.25;4.18;;;20.60;99.90;;;;;;4942514;29;20036;-82
2022/07/04 03:28:30;;;;;;;6.03;3.83;;;20.60;99.90;;;;;;4960242;28;20024;-84
2022/07/04 03:30:56;;;;;;;5.72;4.10;;;20.70;99.90;;;;;;4960178;28;20040;-81
2022/07/04 03:33:22;;;;;;;6.22;3.67;;;20.80;99.90;;;;;;4960348;28;20047;-83
2022/07/04 03:35:48;;;;;;;9.25;4.10;;;20.80;99.90;;;;;;4960026;28;20035;-85
2022/07/04 03:38:13;;;;;;;7.68;4.50;;;20.90;99.90;;;;;;4957115;29;20035;-83
2022/07/04 03:40:40;;;;;;;9.00;4.68;;;20.90;99.90;;;;;;4953387;29;20031;-85
2022/07/04 03:43:06;;;;;;;6.20;3.90;;;20.90;99.90;;;;;;4952738;29;20092;-85
2022/07/04 03:45:33;;;;;;;6.70;3.78;;;20.90;99.90;;;;;;4948904;29;20027;-84
2022/07/04 03:48:02;;;;;;;6.28;3.67;;;21.00;99.90;;;;;;4949311;29;20424;-84
2022/07/04 03:50:27;;;;;;;4.95;3.05;;;21.00;99.90;;;;;;4949529;29;20166;-87
2022/07/04 03:52:53;;;;;;;8.73;3.65;;;21.10;99.90;;;;;;4949679;29;20031;-85
2022/07/04 03:55:20;;;;;;;4.75;3.38;;;21.30;99.90;;;;;;4951406;29;20468;-84
2022/07/04 03:57:46;;;;;;;4.40;3.08;;;21.30;99.90;;;;;;4957975;28;20032;-83
2022/07/04 04:00:12;;;;;;;3.78;3.00;;;21.40;99.90;;;;;;4958854;28;20051;-84
2022/07/04 04:02:38;;;;;;;7.40;3.55;;;21.50;99.90;;;;;;4958765;28;20095;-83
2022/07/04 04:07:49;;;;;;;5.75;2.80;;;21.70;99.90;;;;;;4956905;29;20035;-81
2022/07/04 04:10:15;;;;;;;7.72;2.83;;;21.80;99.90;;;;;;4949463;29;20024;-82
2022/07/04 04:12:41;;;;;;;5.10;2.95;;;21.90;99.90;;;;;;4942410;29;20041;-81
2022/07/04 04:15:08;;;;;;;6.25;3.38;;;21.80;99.90;;;;;;4940824;29;20028;-82
2022/07/04 04:17:34;;;;;;;12.45;3.40;;;21.70;99.90;;;;;;4946452;29;20036;-82
2022/07/04 04:20:00;;;;;;;4.50;3.42;;;21.60;99.90;;;;;;4947716;28;20039;-83
2022/07/04 04:22:28;;;;;;;6.32;3.25;;;21.50;99.90;;;;;;4946572;28;20044;-81
2022/07/04 04:24:54;;;;;;;9.52;3.22;;;21.40;99.90;;;;;;4939649;29;20040;-84
2022/07/04 04:27:20;;;;;;;5.97;3.20;;;21.30;99.90;;;;;;4941181;29;20024;-84
2022/07/04 04:29:46;;;;;;;5.40;3.00;;;21.30;99.90;;;;;;4948929;28;20028;-82
2022/07/04 04:32:12;;;;;;;5.45;2.83;;;21.30;99.90;;;;;;4948417;29;20044;-83
2022/07/04 04:34:38;;;;;;;4.78;3.33;;;21.40;99.90;;;;;;4954917;28;20101;-83
2022/07/04 04:37:04;;;;;;;6.15;3.17;;;21.40;99.90;;;;;;4957668;29;20063;-82
2022/07/04 04:39:30;;;;;;;6.07;3.58;;;21.40;99.90;;;;;;4958094;29;20063;-82
2022/07/04 04:41:56;;;;;;;8.77;2.88;;;21.40;99.90;;;;;;4956733;29;20016;-83
2022/07/04 04:44:21;;;;;;;4.47;3.35;;;21.40;99.90;;;;;;4956202;29;20031;-82
2022/07/04 04:46:47;;;;;;;6.63;3.08;;;21.60;99.90;;;;;;4955926;29;20035;-81
2022/07/04 04:49:13;;;;;;;5.97;3.22;;;21.70;99.90;;;;;;4955935;28;20043;-82
2022/07/04 04:51:42;;;;;;;7.35;3.33;;;21.90;99.90;;;;;;4955250;29;20078;-81
2022/07/04 04:54:08;;;;;;;6.07;3.35;;;21.90;99.90;;;;;;4955761;29;20043;-82
2022/07/04 04:56:34;;;;;;;5.03;3.80;;;22.20;99.90;;;;;;4953036;29;20035;-82
2022/07/04 04:59:00;;;;;;;6.93;3.55;;;22.60;99.90;;;;;;4949937;29;20015;-82
2022/07/04 05:01:25;;;;;;;4.85;3.47;;;22.90;99.90;;;;;;4949093;29;20043;-82
2022/07/04 05:03:51;;;;;;;5.50;3.85;;;23.10;99.90;;;;;;4947919;29;20016;-81
2022/07/04 05:06:18;;;;;;;4.65;3.35;;;23.30;99.90;;;;;;4946639;29;20035;-82
2022/07/04 05:08:44;;;;;;;7.40;3.20;;;23.30;99.90;;;;;;4942813;29;20075;-84
2022/07/04 05:11:10;;;;;;;9.52;3.22;;;23.40;99.90;;;;;;4943557;29;20043;-80
2022/07/04 05:13:36;;;;;;;8.90;3.70;;;23.50;99.90;;;;;;4945827;29;20019;-80
2022/07/04 05:16:05;;;;;;;8.85;3.17;;;23.70;99.90;;;;;;4940642;29;20039;-81
2022/07/04 05:18:31;;;;;;;5.70;3.80;;;23.70;99.90;;;;;;4945533;29;20468;-84
2022/07/04 05:20:58;;;;;;;6.38;3.38;;;23.80;99.90;;;;;;4944779;29;20035;-83
2022/07/04 05:23:24;;;;;;;7.90;3.65;;;23.90;99.90;;;;;;4937961;29;20428;-85
2022/07/04 05:25:50;;;;;;;7.22;3.58;;;23.90;99.90;;;;;;4941618;29;20023;-82
2022/07/04 05:28:19;;;;;;;12.23;4.35;;;24.00;99.90;;;;;;4945637;29;20043;-82
2022/07/04 05:30:48;;;;;;;8.90;3.67;;;24.00;99.90;;;;;;4948390;29;20042;-83
2022/07/04 05:33:14;;;;;;;5.18;2.97;;;24.20;99.90;;;;;;4946566;29;20028;-85
2022/07/04 05:35:40;;;;;;;9.50;3.45;;;24.40;99.90;;;;;;4942821;29;20047;-84
2022/07/04 05:38:06;;;;;;;5.57;3.13;;;24.50;99.90;;;;;;4939133;29;20031;-84
2022/07/04 05:40:32;;;;;;;8.82;3.10;;;24.80;99.90;;;;;;4937030;29;20032;-82
2022/07/04 05:42:58;;;;;;;6.28;2.97;;;25.00;99.90;;;;;;4940918;29;20099;-84
2022/07/04 05:45:24;;;;;;;4.53;3.05;;;25.20;99.90;;;;;;4938249;29;20024;-84
2022/07/04 05:47:53;;;;;;;5.85;3.10;;;25.30;99.90;;;;;;4938976;29;20020;-84
2022/07/04 05:50:19;;;;;;;5.40;3.03;;;25.40;99.90;;;;;;4938910;29;20380;-85
2022/07/04 05:52:45;;;;;;;3.50;2.80;;;25.40;99.90;;;;;;4936600;29;20024;-85
2022/07/04 05:55:14;;;;;;;6.03;3.15;;;25.20;99.90;;;;;;4940791;29;20020;-85
2022/07/04 05:57:39;;;;;;;7.68;2.85;;;25.00;99.90;;;;;;4919711;29;20028;-86
2022/07/04 06:00:06;;;;;;;6.25;3.00;;;24.80;99.90;;;;;;4934219;29;20389;-85
2022/07/04 06:02:32;;;;;;;5.15;3.03;;;24.60;99.90;;;;;;4941772;29;20024;-85
2022/07/04 06:04:58;;;;;;;11.10;3.58;;;24.60;99.90;;;;;;4943060;29;20020;-87
2022/07/04 06:07:23;;;;;;;6.47;3.72;;;24.70;99.90;;;;;;4940052;29;20083;-84
2022/07/04 06:09:49;;;;;;;5.13;3.20;;;24.70;99.90;;;;;;4947878;29;20035;-86
2022/07/04 06:12:19;;;;;;;6.50;3.33;;;24.80;99.90;;;;;;4947144;29;20042;-86
2022/07/04 06:14:48;;;;;;;8.25;3.60;;;24.80;99.90;;;;;;4950942;29;20067;-84
2022/07/04 06:17:14;;;;;;;4.20;2.85;;;24.80;99.90;;;;;;4951910;29;20070;-89
2022/07/04 06:19:40;;;;;;;5.57;2.88;;;24.90;99.90;;;;;;4953732;29;20040;-86
2022/07/04 06:22:06;;;;;;;5.90;2.72;;;25.30;99.90;;;;;;4953885;29;20078;-86
2022/07/04 06:24:33;;;;;;;4.07;2.85;;;25.50;99.90;;;;;;4969966;28;20037;-83
2022/07/04 06:26:59;;;;;;;4.55;3.10;;;25.70;99.90;;;;;;4962120;29;20027;-84
2022/07/04 06:29:25;;;;;;;6.88;3.33;;;25.90;99.90;;;;;;4957673;28;20046;-82
2022/07/04 06:31:51;;;;;;;10.63;3.13;;;26.00;99.90;;;;;;4951900;29;20441;-84
2022/07/04 06:37:03;;;;;;;5.70;3.80;;;26.10;99.90;;;;;;4954163;29;20035;-83
2022/07/04 06:39:29;;;;;;;6.60;3.10;;;26.20;99.90;;;;;;4956891;23;20044;-80
2022/07/04 06:41:55;;;;;;;9.40;3.80;;;26.30;99.90;;;;;;4940603;29;20051;-81
2022/07/04 06:44:21;;;;;;;11.75;4.05;;;26.50;99.90;;;;;;4940557;29;20031;-80
2022/07/04 06:46:47;;;;;;;9.85;3.40;;;26.60;99.90;;;;;;4940481;29;20027;-80
2022/07/04 06:49:12;;;;;;;7.10;3.40;;;26.70;99.90;;;;;;4938647;29;20052;-80
2022/07/04 06:51:38;;;;;;;5.40;3.47;;;26.70;99.90;;;;;;4930126;29;20032;-82
2022/07/04 06:54:05;;;;;;;8.63;3.50;;;26.70;99.90;;;;;;4932543;29;20024;-80
2022/07/04 06:56:31;;;;;;;7.32;3.08;;;26.70;99.90;;;;;;4933106;29;20035;-80
2022/07/04 06:58:56;;;;;;;6.80;3.08;;;26.60;99.90;;;;;;4933517;29;20028;-81
2022/07/04 07:01:22;;;;;;;5.13;3.25;;;26.60;99.90;;;;;;4936639;29;20043;-79
2022/07/04 07:03:48;;;;;;;6.22;2.83;;;26.70;99.90;;;;;;4940189;29;20020;-80
2022/07/04 07:06:14;;;;;;;7.20;2.92;;;26.90;99.90;;;;;;4936737;29;20099;-81
2022/07/04 07:08:40;;;;;;;8.55;3.13;;;27.10;99.90;;;;;;4939029;29;20020;-81
2022/07/04 07:11:17;;;;;;;8.75;3.60;;;27.30;99.90;;;;;;4942389;29;20028;-80
2022/07/04 07:13:46;;;;;;;6.28;2.85;;;27.50;99.90;;;;;;4947871;29;20035;-82
2022/07/04 07:16:13;;;;;;;14.40;2.85;;;27.50;99.70;;;;;;4950042;29;20020;-79
2022/07/04 07:18:39;;;;;;;4.72;2.35;;;27.20;99.90;;;;;;4947983;29;20043;-82
2022/07/04 07:21:05;;;;;;;7.53;2.88;;;27.20;99.40;;;;;;4942871;29;20032;-81
2022/07/04 07:23:31;;;;;;;6.75;2.42;;;27.10;99.20;;;;;;4946648;29;20043;-83
2022/07/04 07:25:56;;;;;;;5.40;2.78;;;27.10;99.00;;;;;;4956059;28;20046;-80
2022/07/04 07:28:22;;;;;;;5.93;2.53;;;27.00;99.10;;;;;;4931540;29;20032;-81
2022/07/04 07:30:48;;;;;;;4.80;2.45;;;27.10;98.90;;;;;;4941671;29;20024;-83
2022/07/04 07:33:14;;;;;;;7.53;2.50;;;27.20;99.00;;;;;;4944626;29;20027;-82
2022/07/04 07:35:40;;;;;;;9.23;2.20;;;27.10;99.20;;;;;;4938458;29;20119;-83
2022/07/04 07:38:06;;;;;;;4.88;2.67;;;27.20;99.00;;;;;;4937091;29;20044;-81
2022/07/04 07:40:33;;;;;;;9.63;2.78;;;27.40;98.80;;;;;;4941682;29;20031;-83
2022/07/04 07:42:59;;;;;;;4.47;2.50;;;27.50;98.50;;;;;;4943648;29;20057;-81
2022/07/04 07:45:24;;;;;;;12.63;2.72;;;27.50;97.90;;;;;;4951722;29;20032;-80
2022/07/04 07:47:50;;;;;;;5.85;2.30;;;27.50;97.90;;;;;;4956066;28;20031;-86
2022/07/04 07:50:16;;;;;;;6.70;2.40;;;27.40;97.70;;;;;;4958095;28;20019;-84
2022/07/04 07:52:42;;;;;;;8.10;2.55;;;27.40;97.50;;;;;;4959103;29;20047;-85
2022/07/04 07:55:08;;;;;;;11.05;2.08;;;27.30;97.30;;;;;;4958989;28;20024;-86
2022/07/04 07:57:34;;;;;;;12.35;3.67;;;27.00;97.50;;;;;;4949486;29;20036;-88
2022/07/04 08:00:00;;;;;;;2.88;1.58;;;26.70;97.70;;;;;;4948421;29;20035;-87
2022/07/04 08:05:11;;;;;;;9.95;1.80;;;26.70;97.30;;;;;;4946697;29;20036;-88
2022/07/04 08:07:39;;;;;;;4.63;1.67;;;26.60;97.30;;;;;;4944087;29;20075;-86
2022/07/04 08:10:05;;;;;;;4.30;1.60;;;26.70;97.00;;;;;;4943794;29;20112;-85
2022/07/04 08:12:31;;;;;;;4.63;1.77;;;26.80;96.80;;;;;;4944102;29;20035;-86
2022/07/04 08:14:57;;;;;;;5.03;1.60;;;27.10;96.20;;;;;;4947264;29;20063;-85
2022/07/04 08:17:23;;;;;;;4.75;2.38;;;27.10;95.80;;;;;;4944954;29;20019;-86
2022/07/04 08:19:49;;;;;;;4.90;1.52;;;27.10;95.90;;;;;;4956339;28;20043;-86
2022/07/04 08:22:15;;;;;;;8.48;1.40;;;27.30;95.40;;;;;;4944904;29;20032;-86
2022/07/04 08:24:42;;;;;;;6.00;2.10;;;27.60;95.50;;;;;;4946426;29;20087;-86
2022/07/04 08:27:08;;;;;;;8.65;2.00;;;27.80;94.90;;;;;;4944661;29;20039;-88
2022/07/04 08:29:34;;;;;;;6.63;1.45;;;28.00;94.60;;;;;;4932332;29;20062;-85
2022/07/04 08:32:00;;;;;;;3.28;1.50;;;28.10;94.10;;;;;;4939778;29;20107;-87
2022/07/04 08:34:26;;;;;;;3.47;1.50;;;28.20;93.70;;;;;;4943460;29;20031;-87
2022/07/04 08:36:52;;;;;;;3.75;1.48;;;28.40;93.70;;;;;;4955758;28;20016;-86
2022/07/04 08:39:17;;;;;;;5.53;1.90;;;28.60;93.60;;;;;;4961340;28;20107;-87
2022/07/04 08:41:43;;;;;;;3.65;1.58;;;28.90;93.20;;;;;;4937037;29;20095;-88
2022/07/04 08:44:11;;;;;;;2.78;1.40;;;29.00;93.00;;;;;;4950339;29;20032;-87
2022/07/04 08:46:42;;;;;;;2.35;1.60;;;29.00;92.50;;;;;;4947602;29;20381;-86
2022/07/04 08:49:30;;;;;;;2.53;1.45;;;29.00;92.60;;;;;;4943054;29;20067;-86
2022/07/04 08:52:01;;;;;;;3.22;1.77;;;29.10;92.50;;;;;;4950337;29;20054;-86
2022/07/04 08:59:58;;;;;;;5.57;1.50;;;29.00;91.70;;;;;;4957676;29;20032;-86
2022/07/04 09:02:27;;;;;;;3.50;1.40;;;29.00;91.70;;;;;;4949304;29;20530;-85
2022/07/04 09:04:53;;;;;;;4.13;1.38;;;29.10;91.70;;;;;;4950412;29;20023;-86
2022/07/04 09:07:19;;;;;;;2.90;1.38;;;29.20;91.20;;;;;;4959026;29;20059;-87
2022/07/04 09:09:46;;;;;;;3.92;1.63;;;29.10;91.50;;;;;;4967651;29;20090;-85
2022/07/04 09:12:12;;;;;;;3.78;1.40;;;29.10;91.30;;;;;;4969555;29;20042;-86
2022/07/04 09:14:39;;;;;;;4.88;1.23;;;29.00;91.20;;;;;;4967966;29;20031;-85
2022/07/04 09:17:06;;;;;;;1.58;1.30;;;28.90;91.30;;;;;;4967735;28;20047;-86
2022/07/04 09:19:32;;;;;;;7.45;1.58;;;28.90;91.20;;;;;;4942761;28;20055;-84
2022/07/04 09:22:03;;;;;;;1.92;1.48;;;28.80;91.20;;;;;;4936675;29;20609;-87
2022/07/04 09:24:47;;;;;;;5.78;1.50;;;28.50;91.70;;;;;;4939622;29;20086;-86
2022/07/04 09:27:31;;;;;;;4.38;1.77;;;28.30;91.90;;;;;;4938420;29;20027;-87
2022/07/04 09:29:58;;;;;;;4.63;1.50;;;27.70;92.40;;;;;;4937513;29;20028;-88
2022/07/04 09:32:36;;;;;;;5.22;1.60;;;27.70;92.70;;;;;;4951457;29;20027;-89
2022/07/04 09:35:04;;;;;;;5.78;1.58;;;27.60;92.50;;;;;;4941642;29;20032;-86
2022/07/04 09:37:38;;;;;;;3.05;1.60;;;27.70;92.50;;;;;;4942779;29;20040;-85
2022/07/04 09:40:06;;;;;;;3.10;1.60;;;27.70;92.60;;;;;;4938822;29;20059;-88
2022/07/04 09:42:41;;;;;;;5.15;1.73;;;27.60;92.20;;;;;;4919045;29;20036;-86
2022/07/04 09:45:10;;;;;;;9.57;1.50;;;27.60;92.50;;;;;;4943226;29;20085;-86
2022/07/04 09:47:36;;;;;;;4.57;1.90;;;27.50;92.70;;;;;;4955102;28;20024;-86
2022/07/04 09:50:13;;;;;;;6.05;1.92;;;27.50;92.50;;;;;;4941550;29;20032;-88
2022/07/04 09:52:57;;;;;;;3.33;1.65;;;27.50;92.40;;;;;;4952113;28;20020;-87
2022/07/04 09:55:41;;;;;;;4.63;1.77;;;27.70;92.60;;;;;;4960425;28;20059;-85
2022/07/04 09:58:15;;;;;;;7.30;1.83;;;27.60;92.70;;;;;;4930009;29;20042;-86
2022/07/04 10:00:46;;;;;;;3.15;1.90;;;27.50;92.80;;;;;;4914634;29;20299;-88
2022/07/04 10:03:26;;;;;;;6.38;1.90;;;27.60;93.10;;;;;;4934453;29;20035;-86
2022/07/04 10:06:02;;;;;;;8.10;4.35;;;27.90;92.20;;;;;;4958785;29;20051;-85
2022/07/04 10:08:29;;;;;;;7.70;1.95;;;28.10;91.80;;;;;;4954552;29;20032;-86
2022/07/04 10:10:59;;;;;;;8.20;1.80;;;28.30;91.50;;;;;;4954971;29;20046;-87
2022/07/04 10:13:26;;;;;;;2.40;1.60;;;28.40;91.30;;;;;;4935596;29;20040;-85
2022/07/04 10:15:52;;;;;;;3.28;1.70;;;28.40;91.40;;;;;;4949935;29;20039;-85
2022/07/04 10:18:22;;;;;;;2.38;1.45;;;28.40;91.20;;;;;;4934560;29;20059;-87
2022/07/04 10:20:49;;;;;;;3.67;1.90;;;28.40;91.10;;;;;;4932980;29;20033;-88
2022/07/04 10:23:17;;;;;;;4.55;2.17;;;28.30;91.30;;;;;;4928471;29;20040;-87
2022/07/04 10:25:47;;;;;;;7.03;1.80;;;28.20;91.40;;;;;;4928279;29;20030;-87
2022/07/04 10:28:14;;;;;;;3.83;1.85;;;28.00;91.70;;;;;;4927140;29;20040;-87
2022/07/04 10:30:41;;;;;;;9.07;1.75;;;28.10;91.80;;;;;;4927339;29;20035;-86
2022/07/04 10:33:11;;;;;;;2.03;1.40;;;28.10;91.70;;;;;;4928013;29;20040;-87
2022/07/04 10:36:03;;;;;;;3.10;1.70;;;28.00;91.50;;;;;;4928139;29;20087;-87
2022/07/04 10:38:31;;;;;;;2.40;1.35;;;28.10;91.60;;;;;;4941611;29;20035;-86
2022/07/04 10:41:06;;;;;;;3.17;1.67;;;28.20;91.50;;;;;;4930583;29;20559;-87
2022/07/04 10:43:41;;;;;;;2.75;1.50;;;28.40;91.20;;;;;;4949252;29;20042;-87
2022/07/04 10:46:13;;;;;;;;;;;28.80;91.00;;;;;;4949108;29;20035;-88
2022/07/04 10:49:13;;;;;;;5.05;1.95;;;29.30;90.60;;;;;;4947108;29;20315;-87
2022/07/04 10:51:48;;;;;;;5.15;1.55;;;30.10;90.20;;;;;;4931946;29;20070;-87
2022/07/04 10:54:21;;;;;;;5.70;2.15;;;30.50;89.20;;;;;;4947017;29;20032;-87
2022/07/04 10:56:52;;;;;;;4.47;1.40;;;31.10;88.10;;;;;;4944966;29;20043;-88
2022/07/04 10:59:28;;;;;;;2.08;1.40;;;32.10;86.00;;;;;;4945731;29;20059;-87
2022/07/04 11:02:06;;;;;;;9.02;1.90;;;32.60;84.40;;;;;;4939224;29;20024;-87
2022/07/04 11:04:58;;;;;;;3.40;1.40;;;34.40;81.90;;;;;;4926631;29;20034;-86
2022/07/04 11:07:29;;;;;;;2.92;1.25;;;35.40;77.40;;;;;;4937026;29;20126;-89
2022/07/04 11:10:16;;;;;;;5.28;1.60;;;35.10;76.40;;;;;;4940553;29;20044;-86
2022/07/04 11:12:54;;;;;;;6.70;1.60;;;35.00;76.10;;;;;;4909749;29;20510;-87
2022/07/04 11:15:31;;;;;;;2.60;1.70;;;34.80;75.70;;;;;;4928972;29;20051;-88
2022/07/04 11:18:14;;;;;;;3.08;1.45;;;34.60;75.70;;;;;;4928178;29;20107;-87
2022/07/04 11:20:47;;;;;;;2.88;1.48;;;34.50;75.70;;;;;;4911933;29;20048;-87
2022/07/04 11:23:15;;;;;;;4.43;1.27;;;34.90;75.20;;;;;;4927036;29;20401;-87
2022/07/04 11:25:44;;;;;;;4.18;1.80;;;36.00;73.90;;;;;;4927665;29;20058;-86
2022/07/04 11:28:32;;;;;;;6.68;2.08;;;38.40;71.00;;;;;;4929868;29;20092;-87
2022/07/04 11:31:02;;;;;;;6.63;1.90;;;40.60;66.40;;;;;;4947676;29;20028;-87
2022/07/04 11:33:32;;;;;;;3.45;1.55;;;42.70;62.00;;;;;;4928255;29;20480;-85
2022/07/04 11:36:09;;;;;;;6.30;1.45;;;42.50;60.00;;;;;;4944051;29;20035;-87
2022/07/04 11:38:50;;;;;;;4.82;1.50;;;42.00;59.80;;;;;;4932730;29;20523;-87
2022/07/04 11:47:15;;;;;;;2.22;1.35;;;40.90;57.80;;;;;;4936780;29;20028;-86
2022/07/04 11:49:52;;;;;;;4.45;1.27;;;39.70;58.80;;;;;;4945626;29;20036;-87
2022/07/04 11:52:26;;;;;;;4.07;1.65;;;38.40;59.50;;;;;;4932649;29;20123;-86
2022/07/04 11:54:53;;;;;;;3.15;1.70;;;37.40;61.10;;;;;;4933630;29;20038;-87
2022/07/04 11:57:28;;;;;;;2.08;1.40;;;37.70;61.40;;;;;;4933376;29;20028;-87
2022/07/04 12:00:00;;;;;;;2.35;1.58;;;38.20;60.60;;;;;;4940857;29;20031;-87
2022/07/04 12:02:28;;;;;;;7.57;4.20;;;39.20;59.60;;;;;;4938337;29;20032;-88
2022/07/04 12:04:57;;;;;;;3.08;1.90;;;39.70;59.20;;;;;;4954693;28;20036;-87
2022/07/04 12:07:25;;;;;;;5.15;3.55;;;39.60;58.50;;;;;;4951447;29;20024;-87
2022/07/04 12:10:39;;;;;;;3.08;2.20;;;38.70;58.90;;;;;;4963838;28;20071;-86
2022/07/04 12:13:08;;;;;;;2.78;1.30;;;38.40;59.10;;;;;;4962886;28;20079;-87
2022/07/04 12:15:39;;;;;;;3.33;1.40;;;39.50;58.50;;;;;;4954586;28;20012;-85
2022/07/04 12:18:15;;;;;;;3.28;1.60;;;40.70;57.30;;;;;;4946241;28;20050;-86
2022/07/04 12:20:41;;;;;;;4.05;1.67;;;41.70;56.40;;;;;;4939921;29;20052;-87
2022/07/04 12:23:09;;;;;;;1.92;1.45;;;42.20;55.80;;;;;;4950445;28;20084;-87
2022/07/04 12:25:37;;;;;;;3.72;1.50;;;43.00;54.90;;;;;;4946834;28;20043;-86
2022/07/04 12:28:09;;;;;;;3.00;1.27;;;43.50;54.30;;;;;;4938698;28;20028;-86
2022/07/04 12:30:35;;;;;;;1.38;1.27;;;44.40;53.10;;;;;;4934426;29;20226;-86
2022/07/04 12:33:03;;;;;;;2.65;1.42;;;43.80;53.10;;;;;;4944540;28;20028;-85
2022/07/04 12:35:37;;;;;;;2.80;1.52;;;44.00;52.60;;;;;;4943372;29;20043;-88
2022/07/04 12:38:07;;;;;;;;;;;44.10;52.30;;;;;;4937686;29;20047;-86
2022/07/04 12:40:36;;;;;;;5.13;1.42;;;44.90;51.60;;;;;;4937552;29;19915;-87
2022/07/04 12:57:53;;;;;;;4.63;1.27;;;46.30;48.10;;;;;;4944272;28;20048;-87
2022/07/04 13:01:10;;;;;;;1.80;1.20;;;46.60;46.90;;;;;;4926381;29;20024;-87
2022/07/04 13:04:41;;;;;;;;;;;;;;;;;;;;;
2022/07/04 13:08:01;;;;;;;2.70;1.48;;;45.60;47.50;;;;;;4904216;29;20040;-86
2022/07/04 13:28:02;;;;;;;;;;;;;;;;;;;;;
2022/07/04 13:31:36;;;;;;;6.13;1.40;;;42.90;48.70;;;;;;4960426;28;20055;-87
2022/07/04 13:38:03;;;;;;;4.10;1.50;;;43.50;48.10;;;;;;4853180;29;20078;-87
2022/07/04 13:40:45;;;;;;;2.47;1.30;;;43.90;47.90;;;;;;4892593;29;20428;-88
2022/07/04 13:43:56;;;;;;;6.00;1.40;;;44.10;47.40;;;;;;4924475;29;20128;-87
2022/07/04 13:58:34;;;;;;;;;;;;;;;;;;;;;
2022/07/04 14:26:43;;;;;;;;;;;;;;;;;;;;;
2022/07/04 14:34:07;;;;;;;1.85;1.48;;;41.80;49.60;;;;;;4909083;29;20167;-87
2022/07/04 14:37:48;;;;;;;;;;;;;;;;;;;;;
2022/07/04 14:48:55;;;;;;;6.47;1.90;;;38.60;55.40;;;;;;4834311;29;20092;-88
2022/07/04 14:52:24;;;;;;;3.60;1.92;;;38.50;55.40;;;;;;4839649;29;20096;-88
2022/07/04 15:11:48;;;;;;;;;;;;;;;;;;;;;